KTCM/TCM METAR and TAF weather

Enter ICAO airport designator
Station Type Date Time Source
KTCM METAR 2021/01/17 18:58 UTC NOAA

KTCM 171858Z AUTO 19003KT 10SM BKN006 OVC019 08/07 A3048 RMK AO2 SLP327 T00780072 $


Station Type Date Time Source
KTCM Decoded METAR 2021/01/17 18:58 UTC NOAA

Tacoma / McChord Air Force Base, WA, United States (KTCM) 47-09N 122-29W 87M
Jan 17, 2021 - 01:58 PM EST / 2021.01.17 1858 UTC
Wind: from the S (190 degrees) at 3 MPH (3 KT):0
Visibility: 10 mile(s):0
Sky conditions: overcast
Temperature: 46.0 F (7.8 C)
Dew Point: 45.0 F (7.2 C)
Relative Humidity: 95%
Pressure (altimeter): 30.48 in. Hg (1032 hPa)
ob: KTCM 171858Z AUTO 19003KT 10SM BKN006 OVC019 08/07 A3048 RMK AO2 SLP327 T00780072
cycle: 19

Station Type Date Time Source
KTCM TAF 2021/01/17 16:41 UTC NOAA

TAF
AMD KTCM 171630Z 1716/1819 VRB04KT 9999 OVC008 QNH3042INS
TEMPO 1716/1719 SCT008 OVC015
BECMG 1719/1720 20009KT 9999 BKN010 QNH3042INS
BECMG 1801/1802 17006KT 9999 BKN020 QNH3047INS
BECMG 1806/1807 VRB05KT 4800 BR BKN020 QNH3050INS
BECMG 1809/1810 VRB05KT 3200 BR BKN010 QNH3053INS TX10/1721Z TN05/1716Z

Example: see airport list